CheckWX is a tool to help pilots better visualize weather data.  It is not intended as a substitute for an official pre-flight weather briefing.

18:32:02 UTC

KNSE METAR
Whiting Field NAS North Airport
Milton, Florida, USA
Current

29 mins ago

KNSE 201803Z 15007KT 10SM SCT006 SCT050 BKN120 BKN250 27/25 A3011 RMK AO2 SLP179 6//// T02670250 10278 20233 $
Observed
Aug-20 @ 18:03 UTC
Wind
  • 150° at 7 KTS
Visibility
10 SM
Flight Rules
VFR
Cloud Levels
  • Scattered at 600' AGL
  • Scattered at 5,000' AGL
  • Broken at 12,000' AGL
  • Broken at 25,000' AGL
Temperature
27°C / 81°F
Dewpoint
25°C / 77°F
Heat Index
31°C / 88°F
Humidity
89%
Altimeter
30.11" Hg
Pressure
1019.62 hPa
Previous

2 hours ago

KNSE 201656Z 14008KT 5SM RA BR FEW030 SCT050 BKN110 BKN250 25/25 A3011 RMK AO2 SLP180 T02500250 PNO $
Observed
Aug-20 @ 16:56 UTC
Wind
  • 140° at 8 KTS
Visibility
5 SM
Flight Rules
MVFR
Conditions
Rain, Mist
Cloud Levels
  • Few at 3,000' AGL
  • Scattered at 5,000' AGL
  • Broken at 11,000' AGL
  • Broken at 25,000' AGL
Temperature
25°C / 77°F
Dewpoint
25°C / 77°F
Humidity
100%
Altimeter
30.11" Hg
Pressure
1019.62 hPa
Previous

2 hours ago

KNSE 201631Z 18010KT 2SM +RA BR FEW020 SCT030 BKN120 BKN250 25/24 A3011 RMK AO2 P0000 T02500244
Observed
Aug-20 @ 16:31 UTC
Wind
  • 180° at 10 KTS
Visibility
2 SM
Flight Rules
IFR
Conditions
Heavy Rain, Mist
Cloud Levels
  • Few at 2,000' AGL
  • Scattered at 3,000' AGL
  • Broken at 12,000' AGL
  • Broken at 25,000' AGL
Temperature
25°C / 77°F
Dewpoint
24°C / 75°F
Humidity
94%
Altimeter
30.11" Hg
Pressure
1019.62 hPa
Current Rain
0.01"